Time;durP1;ratioP1;P1;durP2;ratioP2;P2;SDS_P1;SDS_P2;PMS_P1;PMS_P2;Temp;Humidity;BMP_temperature;BMP_pressure;BME280_temperature;BME280_humidity;BME280_pressure;Samples;Min_cycle;Max_cycle;Signal;HPM_P1;HPM_P2
2022/09/15 00:01:13;;;;;;;20.92;3.00;;;;;;;17.98;67.48;99774.94;4925258;28;120236;-79
2022/09/15 00:03:39;;;;;;;25.83;2.92;;;;;;;17.94;68.17;99774.50;4897201;28;122071;-79
2022/09/15 00:06:06;;;;;;;28.58;2.88;;;;;;;17.93;68.57;99778.53;4925196;28;120528;-79
2022/09/15 00:08:32;;;;;;;16.40;2.20;;;;;;;17.90;68.60;99779.59;4909886;28;120318;-79
2022/09/15 00:11:18;;;;;;;12.55;2.13;;;;;;;17.95;66.85;99796.16;4917397;28;121967;-81
2022/09/15 00:13:44;;;;;;;7.60;1.80;;;;;;;17.79;66.36;99797.88;4930724;28;120203;-81
2022/09/15 00:16:11;;;;;;;9.80;1.83;;;;;;;17.72;66.83;99806.00;4941902;28;121851;-78
2022/09/15 00:18:38;;;;;;;23.03;2.63;;;;;;;17.71;67.46;99802.50;4908021;28;122889;-79
2022/09/15 00:21:09;;;;;;;16.00;2.28;;;;;;;17.70;67.86;99778.81;4926006;28;120017;-80
2022/09/15 00:23:36;;;;;;;18.17;2.80;;;;;;;17.74;68.17;99784.84;4926520;28;120504;-79
2022/09/15 00:26:06;;;;;;;14.57;2.30;;;;;;;17.77;67.97;99786.56;4940945;28;119895;-79
2022/09/15 00:28:51;;;;;;;19.27;2.10;;;;;;;17.79;67.50;99780.50;4936723;28;120138;-79
2022/09/15 00:31:19;;;;;;;25.50;2.80;;;;;;;17.80;67.93;99787.53;4904093;28;122215;-79
2022/09/15 00:33:46;;;;;;;17.77;2.30;;;;;;;17.82;68.40;99787.00;4940645;28;120010;-79
2022/09/15 00:36:13;;;;;;;18.45;2.72;;;;;;;17.83;68.46;99786.50;4924445;28;121152;-79
2022/09/15 00:38:39;;;;;;;24.80;2.23;;;;;;;17.85;68.58;99780.41;4904790;28;123648;-79
2022/09/15 00:41:09;;;;;;;18.40;2.42;;;;;;;17.83;68.33;99775.41;4947159;28;120218;-79
2022/09/15 00:43:51;;;;;;;25.98;2.60;;;;;;;17.87;68.74;99764.00;4914599;28;122801;-79
2022/09/15 00:46:23;;;;;;;20.13;2.57;;;;;;;17.84;68.53;99763.03;4931105;28;120864;-79
2022/09/15 00:49:05;;;;;;;25.38;2.50;;;;;;;17.79;68.40;99750.72;4914955;28;120166;-79
2022/09/15 00:51:58;;;;;;;19.60;2.55;;;;;;;17.88;68.63;99755.16;4934452;28;120476;-78
2022/09/15 00:54:31;;;;;;;17.37;2.43;;;;;;;17.87;68.78;99761.97;4921081;28;121280;-78
2022/09/15 00:57:01;;;;;;;26.83;2.97;;;;;;;17.87;69.01;99764.00;4911317;28;121109;-78
2022/09/15 00:59:30;;;;;;;29.97;3.00;;;;;;;17.85;68.68;99744.34;4923298;28;123871;-77
2022/09/15 01:02:25;;;;;;;28.27;3.07;;;;;;;17.91;68.51;99764.44;4883121;28;120524;-78
2022/09/15 01:04:52;;;;;;;18.73;2.53;;;;;;;17.90;68.07;99760.19;4924266;28;120869;-78
2022/09/15 01:07:25;;;;;;;24.40;2.73;;;;;;;17.86;68.48;99763.25;4937232;28;123618;-78
2022/09/15 01:09:55;;;;;;;22.77;2.70;;;;;;;17.84;68.42;99753.94;4919296;28;120004;-78
2022/09/15 01:12:23;;;;;;;23.50;2.83;;;;;;;17.88;68.30;99765.50;4942961;28;121847;-77
2022/09/15 01:14:48;;;;;;;28.38;3.00;;;;;;;17.82;68.42;99756.50;4925236;28;124303;-78
2022/09/15 01:17:19;;;;;;;21.33;3.03;;;;;;;17.86;68.00;99762.50;4916178;28;120079;-78
2022/09/15 01:20:23;;;;;;;19.87;2.83;;;;;;;17.82;67.69;99771.13;4915135;28;121959;-78
2022/09/15 01:23:08;;;;;;;19.50;2.60;;;;;;;17.71;67.75;99752.56;4927785;28;120678;-78
2022/09/15 01:25:56;;;;;;;25.93;3.10;;;;;;;17.74;68.60;99767.41;4921871;28;120365;-78
2022/09/15 01:29:02;;;;;;;16.95;2.70;;;;;;;17.74;68.39;99759.09;4924457;28;120287;-77
2022/09/15 01:33:02;;;;;;;19.67;3.20;;;;;;;17.74;68.85;99756.31;4907569;28;119661;-78
2022/09/15 01:34:25;;;;;;;17.70;2.85;;;;;;;17.75;67.99;99752.31;4906291;28;120914;-78
2022/09/15 01:37:00;;;;;;;17.60;2.63;;;;;;;17.73;68.31;99750.03;4890842;28;121931;-77
2022/09/15 01:39:30;;;;;;;18.20;2.57;;;;;;;17.73;68.44;99744.47;4879819;28;1202139;-77
2022/09/15 01:42:07;;;;;;;26.37;3.30;;;;;;;17.77;69.49;99750.50;4922325;28;121598;-78
2022/09/15 01:44:40;;;;;;;30.35;3.90;;;;;;;17.74;68.71;99745.22;4930046;28;121343;-77
2022/09/15 01:47:18;;;;;;;25.65;3.25;;;;;;;17.74;67.77;99751.56;4924726;28;120358;-77
2022/09/15 01:50:09;;;;;;;32.80;4.18;;;;;;;17.74;68.30;99756.31;4942774;28;123414;-77
2022/09/15 01:52:38;;;;;;;26.20;3.90;;;;;;;17.70;68.26;99753.84;4929277;28;120205;-77
2022/09/15 01:55:13;;;;;;;25.65;3.15;;;;;;;17.64;68.46;99744.81;4922555;28;119730;-76
2022/09/15 01:57:38;;;;;;;34.47;4.00;;;;;;;17.58;68.69;99737.84;4940285;28;122996;-77
2022/09/15 02:00:04;;;;;;;21.37;3.60;;;;;;;17.58;68.90;99735.81;4927932;28;119862;-78
2022/09/15 02:02:38;;;;;;;32.60;3.63;;;;;;;17.63;69.05;99746.09;4947936;28;121808;-77
2022/09/15 02:05:38;;;;;;;22.70;3.60;;;;;;;17.62;68.96;99743.84;4910254;28;121482;-77
2022/09/15 02:08:11;;;;;;;26.43;3.27;;;;;;;17.60;69.26;99735.28;4947516;28;120086;-77
2022/09/15 02:10:47;;;;;;;22.38;3.20;;;;;;;17.64;68.58;99735.75;4926542;28;121798;-77
2022/09/15 02:13:24;;;;;;;20.20;2.80;;;;;;;17.62;68.89;99727.94;4924418;28;121843;-77
2022/09/15 02:15:55;;;;;;;14.90;2.95;;;;;;;17.61;68.25;99726.47;4927177;28;120723;-77
2022/09/15 02:18:33;;;;;;;27.08;3.35;;;;;;;17.67;68.02;99737.47;4943877;28;121816;-78
2022/09/15 02:21:22;;;;;;;20.03;2.87;;;;;;;17.61;67.07;99726.47;4938119;28;120184;-78
2022/09/15 02:23:56;;;;;;;29.40;3.30;;;;;;;17.56;67.76;99727.28;4927794;28;120511;-77
2022/09/15 02:26:26;;;;;;;29.77;3.70;;;;;;;17.61;67.19;99736.78;4936901;28;121445;-77
2022/09/15 02:28:56;;;;;;;32.47;3.50;;;;;;;17.64;67.83;99735.75;4925315;28;120078;-77
2022/09/15 02:31:23;;;;;;;23.52;3.08;;;;;;;17.65;67.01;99738.00;4929190;28;122651;-77
2022/09/15 02:33:57;;;;;;;34.73;4.23;;;;;;;17.64;68.05;99733.72;4935574;28;120361;-77
2022/09/15 02:36:25;;;;;;;25.20;2.97;;;;;;;17.69;66.41;99738.47;4943669;28;120183;-77
2022/09/15 02:38:59;;;;;;;24.95;2.80;;;;;;;17.70;66.52;99739.97;4895168;28;121724;-77
2022/09/15 02:41:26;;;;;;;19.55;2.67;;;;;;;17.68;66.28;99734.22;4926012;28;120636;-77
2022/09/15 02:43:52;;;;;;;27.20;3.42;;;;;;;17.69;66.89;99744.03;4911418;28;120422;-77
2022/09/15 02:46:20;;;;;;;26.30;3.33;;;;;;;17.71;66.83;99749.78;4926128;28;122134;-77
2022/09/15 02:48:46;;;;;;;26.05;3.08;;;;;;;17.73;66.58;99750.03;4905703;28;120641;-77
2022/09/15 02:51:13;;;;;;;28.00;3.72;;;;;;;17.69;67.14;99741.25;4929755;28;122462;-77
2022/09/15 02:53:39;;;;;;;31.10;3.47;;;;;;;17.73;66.34;99738.19;4911984;28;120830;-77
2022/09/15 02:56:05;;;;;;;19.13;2.97;;;;;;;17.66;66.54;99742.28;4933962;28;120554;-77
2022/09/15 02:58:32;;;;;;;29.88;4.05;;;;;;;17.65;65.21;99745.56;4915773;28;123632;-77
2022/09/15 03:01:03;;;;;;;28.23;3.47;;;;;;;17.64;65.94;99742.03;4910927;28;119757;-76
2022/09/15 03:03:30;;;;;;;11.93;2.55;;;;;;;17.55;65.11;99734.09;4897954;28;120685;-77
2022/09/15 03:06:15;;;;;;;19.15;3.00;;;;;;;17.59;66.32;99748.41;4929803;28;121229;-77
2022/09/15 03:08:49;;;;;;;18.60;3.47;;;;;;;17.62;66.05;99761.22;4910744;28;120173;-77
2022/09/15 03:11:16;;;;;;;19.58;3.42;;;;;;;17.56;65.38;99740.38;4923148;28;120328;-78
2022/09/15 03:13:42;;;;;;;21.67;3.40;;;;;;;17.58;65.68;99738.59;4924641;28;123184;-77
2022/09/15 03:16:12;;;;;;;19.43;3.10;;;;;;;17.57;66.25;99737.09;4942369;28;120101;-77
2022/09/15 03:18:39;;;;;;;32.73;4.00;;;;;;;17.56;67.64;99741.13;4936652;28;123173;-78
2022/09/15 03:21:06;;;;;;;21.88;2.88;;;;;;;17.59;67.43;99733.78;4916964;28;120567;-77
2022/09/15 03:23:32;;;;;;;28.27;3.67;;;;;;;17.54;68.10;99727.03;4926723;28;119876;-77
2022/09/15 03:25:58;;;;;;;20.95;3.47;;;;;;;17.55;67.45;99731.31;4925008;28;121308;-78
2022/09/15 03:28:27;;;;;;;28.48;3.40;;;;;;;17.59;66.69;99739.34;4894403;28;120179;-78
2022/09/15 03:30:54;;;;;;;22.43;3.27;;;;;;;17.59;67.08;99753.19;4927586;28;119718;-78
2022/09/15 03:33:23;;;;;;;32.42;4.25;;;;;;;17.56;67.87;99757.03;4893480;28;124036;-78
2022/09/15 03:35:50;;;;;;;24.80;3.60;;;;;;;17.59;67.73;99753.19;4912560;28;120720;-78
2022/09/15 03:38:16;;;;;;;14.27;2.55;;;;;;;17.54;67.15;99748.47;4931097;28;123094;-77
2022/09/15 03:41:06;;;;;;;24.20;3.28;;;;;;;17.48;68.07;99740.19;4927597;28;119829;-78
2022/09/15 03:43:33;;;;;;;28.38;2.95;;;;;;;17.46;68.16;99739.97;4910639;28;122632;-78
2022/09/15 03:45:59;;;;;;;26.83;3.30;;;;;;;17.39;67.87;99729.47;4909704;28;121275;-78
2022/09/15 03:48:26;;;;;;;22.73;2.80;;;;;;;17.35;67.54;99721.44;4923964;28;120550;-78
2022/09/15 03:50:52;;;;;;;14.68;3.08;;;;;;;17.38;67.62;99733.53;4909975;28;122496;-77
2022/09/15 03:53:19;;;;;;;15.45;2.78;;;;;;;17.34;67.94;99733.06;4930027;28;123208;-77
2022/09/15 03:55:45;;;;;;;34.85;3.78;;;;;;;17.37;68.53;99729.25;4929756;28;120129;-77
2022/09/15 03:58:12;;;;;;;16.15;2.83;;;;;;;17.35;67.97;99729.00;4929089;28;122148;-77
2022/09/15 04:00:38;;;;;;;21.57;3.70;;;;;;;17.35;68.60;99729.00;4924186;28;120088;-77
2022/09/15 04:03:07;;;;;;;19.38;3.20;;;;;;;17.35;68.26;99731.78;4910453;28;120455;-78
2022/09/15 04:05:33;;;;;;;28.83;3.25;;;;;;;17.31;68.44;99723.00;4921292;28;122919;-79
2022/09/15 04:07:59;;;;;;;19.83;3.10;;;;;;;17.35;69.33;99726.25;4912785;28;119964;-78
2022/09/15 04:10:25;;;;;;;11.55;2.67;;;;;;;17.34;68.22;99733.06;4903944;28;122544;-78
2022/09/15 04:12:51;;;;;;;28.08;3.20;;;;;;;17.28;68.91;99718.50;4924908;28;121412;-79
2022/09/15 04:15:18;;;;;;;21.50;2.73;;;;;;;17.41;68.12;99741.53;4890300;28;119902;-79
2022/09/15 04:17:44;;;;;;;16.27;2.63;;;;;;;17.43;68.00;99739.00;4909409;28;122895;-79
2022/09/15 04:20:09;;;;;;;18.83;2.47;;;;;;;17.35;67.14;99727.00;4912359;28;123473;-79
2022/09/15 04:22:35;;;;;;;26.50;3.05;;;;;;;17.37;68.09;99730.00;4926494;28;120708;-78
2022/09/15 04:25:01;;;;;;;13.52;2.40;;;;;;;17.36;67.76;99728.50;4924886;28;123889;-79
2022/09/15 04:27:27;;;;;;;18.75;2.50;;;;;;;17.42;68.29;99731.19;4936087;28;120525;-78
2022/09/15 04:29:53;;;;;;;36.13;3.20;;;;;;;17.38;68.64;99725.19;4917628;28;120543;-79
2022/09/15 04:32:19;;;;;;;19.47;2.50;;;;;;;17.41;67.87;99726.94;4924111;28;120726;-78
2022/09/15 04:34:45;;;;;;;14.68;2.10;;;;;;;17.40;67.79;99733.75;4921375;28;120082;-78
2022/09/15 04:37:11;;;;;;;12.00;2.08;;;;;;;17.41;67.74;99738.00;4935520;28;120961;-79
2022/09/15 04:39:37;;;;;;;21.33;2.47;;;;;;;17.34;67.94;99746.91;4921960;28;124037;-79
2022/09/15 04:42:04;;;;;;;13.15;2.00;;;;;;;17.35;67.64;99748.41;4927000;28;121147;-79
2022/09/15 04:44:31;;;;;;;11.30;2.00;;;;;;;17.31;67.78;99754.25;4904739;28;122988;-79
2022/09/15 04:46:57;;;;;;;15.73;2.08;;;;;;;17.27;67.06;99747.47;4923943;28;121693;-79
2022/09/15 04:49:23;;;;;;;19.33;2.20;;;;;;;17.21;67.57;99744.00;4904869;28;122523;-78
2022/09/15 04:51:52;;;;;;;14.25;2.08;;;;;;;17.20;67.27;99737.72;4924497;28;121505;-77
2022/09/15 04:54:18;;;;;;;16.77;2.03;;;;;;;17.15;67.50;99735.75;4939892;28;122643;-77
2022/09/15 04:56:44;;;;;;;21.75;2.17;;;;;;;17.12;68.02;99737.56;4920629;28;122446;-78
2022/09/15 04:59:33;;;;;;;18.40;2.50;;;;;;;17.08;67.90;99733.56;4890352;28;120524;-77
2022/09/15 05:01:59;;;;;;;10.02;2.10;;;;;;;17.09;67.83;99746.91;4907514;28;120651;-78
2022/09/15 05:04:24;;;;;;;23.98;2.50;;;;;;;17.01;67.46;99739.66;4903442;28;123742;-78
2022/09/15 05:06:50;;;;;;;20.30;2.30;;;;;;;17.03;68.28;99746.19;4917459;28;120156;-80
2022/09/15 05:09:19;;;;;;;19.77;2.65;;;;;;;17.06;68.20;99749.97;4915398;28;121934;-80
2022/09/15 05:11:45;;;;;;;19.27;2.43;;;;;;;17.06;68.13;99756.25;4915711;28;120473;-80
2022/09/15 05:14:13;;;;;;;17.57;2.13;;;;;;;17.09;68.15;99754.47;4917573;28;121920;-79
2022/09/15 05:16:39;;;;;;;29.13;2.92;;;;;;;17.06;67.85;99745.16;4913853;28;120628;-80
2022/09/15 05:19:04;;;;;;;26.85;2.60;;;;;;;17.12;68.65;99753.44;4901445;28;123064;-80
2022/09/15 05:21:31;;;;;;;18.88;2.63;;;;;;;17.12;69.41;99756.94;4928191;28;119835;-80
2022/09/15 05:23:57;;;;;;;27.73;2.90;;;;;;;17.16;69.19;99754.63;4923954;28;122969;-80
2022/09/15 05:26:25;;;;;;;24.17;3.30;;;;;;;17.27;68.39;99756.56;4904639;28;120568;-78
2022/09/15 05:28:51;;;;;;;20.50;2.97;;;;;;;17.25;68.58;99750.75;4903850;28;123466;-79
2022/09/15 05:31:19;;;;;;;32.33;3.70;;;;;;;17.36;69.60;99766.53;4903476;28;122627;-78
2022/09/15 05:33:47;;;;;;;24.65;3.50;;;;;;;17.40;69.45;99756.66;4916403;28;119994;-79
2022/09/15 05:36:14;;;;;;;22.65;2.65;;;;;;;17.48;69.51;99763.13;4928948;28;122207;-79
2022/09/15 05:38:39;;;;;;;28.25;3.47;;;;;;;17.49;69.26;99758.34;4934229;28;123225;-78
2022/09/15 05:41:16;;;;;;;21.33;2.70;;;;;;;17.55;68.63;99761.81;4919965;28;120681;-78
2022/09/15 05:43:44;;;;;;;22.02;2.83;;;;;;;17.60;68.19;99772.09;4901553;28;122465;-79
2022/09/15 05:46:11;;;;;;;27.38;3.38;;;;;;;17.61;68.50;99761.75;4919225;28;121588;-79
2022/09/15 05:48:37;;;;;;;19.17;2.78;;;;;;;17.56;68.46;99759.78;4903400;28;122466;-78
2022/09/15 05:51:06;;;;;;;20.25;2.67;;;;;;;17.58;67.35;99760.78;4918806;28;123562;-79
2022/09/15 05:53:34;;;;;;;22.80;2.72;;;;;;;17.58;67.63;99763.53;4914582;28;121782;-79
2022/09/15 05:56:10;;;;;;;18.25;2.42;;;;;;;17.53;66.71;99760.84;4934326;28;120744;-79
2022/09/15 05:58:41;;;;;;;22.40;3.22;;;;;;;17.53;67.08;99764.38;4917766;28;122798;-79
2022/09/15 06:01:21;;;;;;;29.80;3.80;;;;;;;17.53;67.16;99763.63;4921022;28;120710;-78
2022/09/15 06:03:50;;;;;;;17.50;2.37;;;;;;;17.55;66.80;99764.59;4923484;28;120027;-79
2022/09/15 06:06:16;;;;;;;22.70;2.97;;;;;;;17.56;67.27;99762.56;4903974;28;122961;-78
2022/09/15 06:08:45;;;;;;;25.67;2.77;;;;;;;17.54;68.01;99757.53;4926818;28;120397;-78
2022/09/15 06:11:17;;;;;;;28.13;3.10;;;;;;;17.58;67.70;99766.31;4903284;28;123203;-79
2022/09/15 06:13:43;;;;;;;20.83;2.97;;;;;;;17.60;68.00;99769.31;4935961;28;120248;-79
2022/09/15 06:16:17;;;;;;;20.52;3.13;;;;;;;17.60;66.90;99766.53;4919955;28;121745;-79
2022/09/15 06:18:47;;;;;;;29.13;3.75;;;;;;;17.60;67.30;99761.00;4921381;28;120984;-79
2022/09/15 06:21:23;;;;;;;19.42;2.88;;;;;;;17.63;67.39;99761.97;4906501;28;121961;-79
2022/09/15 06:24:00;;;;;;;24.65;3.63;;;;;;;17.63;67.57;99762.72;4939788;28;120128;-80
2022/09/15 06:26:27;;;;;;;29.90;3.22;;;;;;;17.64;68.25;99764.22;4941210;28;121633;-79
2022/09/15 06:28:57;;;;;;;18.42;2.83;;;;;;;17.67;67.36;99773.53;4939553;28;120097;-79
2022/09/15 06:31:26;;;;;;;35.50;4.00;;;;;;;17.66;68.00;99764.47;4910588;28;120487;-80
2022/09/15 06:33:54;;;;;;;30.63;3.38;;;;;;;17.72;68.10;99770.72;4919902;28;121130;-80
2022/09/15 06:36:23;;;;;;;20.48;2.92;;;;;;;17.79;68.14;99774.94;4924097;28;121008;-80
2022/09/15 06:39:14;;;;;;;20.58;3.00;;;;;;;17.85;67.22;99777.66;4869842;28;120458;-78
2022/09/15 06:41:40;;;;;;;23.63;3.10;;;;;;;17.83;67.43;99771.88;4906318;28;120534;-79
2022/09/15 06:44:12;;;;;;;34.80;3.65;;;;;;;17.91;67.16;99773.53;4922259;28;120919;-79
2022/09/15 06:46:38;;;;;;;23.45;2.90;;;;;;;17.92;67.26;99771.50;4920107;28;121645;-79
2022/09/15 06:49:03;;;;;;;15.40;2.63;;;;;;;18.00;67.65;99775.94;4934393;28;120784;-78
2022/09/15 06:51:34;;;;;;;36.13;3.53;;;;;;;18.01;66.74;99773.94;4939793;28;122222;-77
2022/09/15 06:54:04;;;;;;;18.90;2.70;;;;;;;18.09;65.37;99772.03;4946209;28;120069;-78
2022/09/15 06:56:30;;;;;;;31.15;3.30;;;;;;;18.14;66.68;99779.53;4941002;28;120967;-79
2022/09/15 06:58:56;;;;;;;22.60;2.80;;;;;;;18.10;65.15;99777.06;4922783;28;120689;-79
2022/09/15 07:01:30;;;;;;;24.70;2.85;;;;;;;18.10;65.09;99779.84;4908616;28;120239;-79
2022/09/15 07:03:58;;;;;;;20.87;2.97;;;;;;;18.09;65.45;99772.03;4920302;28;123412;-79
2022/09/15 07:06:30;;;;;;;25.03;3.40;;;;;;;18.15;65.87;99781.03;4926356;28;122050;-79
2022/09/15 07:08:57;;;;;;;19.63;3.17;;;;;;;18.19;66.37;99787.03;4942562;28;121285;-79
2022/09/15 07:11:24;;;;;;;20.23;2.77;;;;;;;18.21;66.18;99781.72;4936659;28;121545;-78
2022/09/15 07:13:50;;;;;;;15.43;2.60;;;;;;;18.27;67.02;99785.19;4942890;28;120244;-79
2022/09/15 07:16:18;;;;;;;27.73;3.33;;;;;;;18.24;66.68;99775.13;4918806;28;121508;-78
2022/09/15 07:18:47;;;;;;;24.05;2.63;;;;;;;18.36;65.54;99784.78;4900024;28;123577;-79
2022/09/15 07:21:16;;;;;;;25.30;2.92;;;;;;;18.40;65.74;99782.47;4908265;28;121591;-79
2022/09/15 07:23:42;;;;;;;17.15;2.60;;;;;;;18.45;65.95;99782.91;4921191;28;121236;-78
2022/09/15 07:26:16;;;;;;;16.40;2.78;;;;;;;18.44;64.29;99776.59;4906545;28;123233;-79
2022/09/15 07:28:43;;;;;;;31.70;3.25;;;;;;;18.49;64.17;99783.38;4934830;28;120779;-77
2022/09/15 07:31:12;;;;;;;16.77;2.60;;;;;;;18.53;64.75;99784.56;4924795;28;121171;-78
2022/09/15 07:33:38;;;;;;;16.05;2.33;;;;;;;18.52;63.63;99782.31;4935937;28;122785;-78
2022/09/15 07:36:05;;;;;;;12.57;2.55;;;;;;;18.67;64.06;99793.72;4927507;28;120507;-78
2022/09/15 07:38:32;;;;;;;12.23;2.30;;;;;;;18.65;62.69;99785.16;4913209;28;122603;-78
2022/09/15 07:41:09;;;;;;;17.00;2.53;;;;;;;18.68;62.41;99792.44;4937465;28;119901;-79
2022/09/15 07:43:34;;;;;;;19.23;2.90;;;;;;;18.74;62.16;99798.69;4903501;28;120419;-78
2022/09/15 07:46:01;;;;;;;20.23;2.78;;;;;;;18.75;63.07;99791.84;4905543;28;121308;-78
2022/09/15 07:48:27;;;;;;;15.77;2.63;;;;;;;18.82;61.81;99796.78;4923784;28;120663;-78
2022/09/15 07:50:55;;;;;;;14.65;2.42;;;;;;;18.80;61.87;99788.22;4916130;28;120359;-77
2022/09/15 07:53:47;;;;;;;24.00;2.78;;;;;;;18.84;61.24;99787.91;4929966;28;120776;-77
2022/09/15 07:56:14;;;;;;;16.90;2.47;;;;;;;18.91;61.61;99801.19;4906907;28;121561;-79
2022/09/15 07:58:40;;;;;;;14.90;2.55;;;;;;;18.92;59.57;99809.00;4905458;28;122153;-78
2022/09/15 08:01:13;;;;;;;12.70;2.27;;;;;;;18.94;59.11;99800.91;4923864;28;119954;-77
2022/09/15 08:03:41;;;;;;;14.97;2.30;;;;;;;18.99;59.97;99802.84;4922593;28;121869;-79
2022/09/15 08:06:08;;;;;;;11.02;2.15;;;;;;;19.02;59.80;99793.44;4921414;28;121459;-78
2022/09/15 08:08:36;;;;;;;13.80;2.40;;;;;;;19.16;59.07;99794.19;4921299;28;120549;-80
2022/09/15 08:11:09;;;;;;;9.77;2.00;;;;;;;19.32;57.55;99797.97;4921674;28;121943;-78
2022/09/15 08:13:36;;;;;;;10.43;2.17;;;;;;;19.45;58.49;99797.28;4922645;28;120377;-78
2022/09/15 08:16:10;;;;;;;16.25;2.28;;;;;;;19.59;59.06;99796.75;4920597;28;119934;-77
2022/09/15 08:18:38;;;;;;;13.98;2.25;;;;;;;19.73;57.98;99796.78;4923691;28;120313;-77
2022/09/15 08:21:06;;;;;;;18.17;2.53;;;;;;;19.90;58.17;99803.50;4922794;28;123356;-76
2022/09/15 08:23:32;;;;;;;10.60;2.27;;;;;;;20.02;55.92;99804.03;4917210;28;122078;-77
2022/09/15 08:26:00;;;;;;;18.70;1.85;;;;;;;20.04;54.98;99801.44;4920668;28;123801;-78
2022/09/15 08:28:26;;;;;;;13.02;1.95;;;;;;;20.12;56.32;99802.31;4921346;28;119711;-77
2022/09/15 08:30:58;;;;;;;16.93;2.43;;;;;;;20.13;54.64;99803.81;4921638;28;120148;-77
2022/09/15 08:33:24;;;;;;;9.52;2.17;;;;;;;20.16;53.83;99790.84;4903022;28;120956;-77
2022/09/15 08:35:50;;;;;;;14.40;2.17;;;;;;;20.18;53.19;99799.41;4920228;28;120344;-77
2022/09/15 08:38:15;;;;;;;14.50;2.22;;;;;;;20.19;56.07;99804.44;4933549;28;120546;-77
2022/09/15 08:40:44;;;;;;;10.05;2.03;;;;;;;20.35;54.21;99808.16;4932181;28;122175;-77
2022/09/15 08:43:27;;;;;;;7.63;1.90;;;;;;;20.37;52.31;99808.38;4924259;28;120105;-77
2022/09/15 08:46:02;;;;;;;13.90;2.35;;;;;;;20.29;51.84;99806.75;4919277;28;124026;-77
2022/09/15 08:48:35;;;;;;;24.47;2.87;;;;;;;20.21;53.17;99821.34;4904884;28;120338;-76
2022/09/15 08:51:11;;;;;;;9.63;1.95;;;;;;;19.99;52.59;99818.28;4919183;28;120634;-76
2022/09/15 08:53:42;;;;;;;13.50;1.90;;;;;;;19.90;53.85;99816.69;4933733;28;120115;-76
2022/09/15 08:56:16;;;;;;;12.77;2.30;;;;;;;19.92;55.57;99819.69;4906000;28;120686;-78
2022/09/15 08:58:44;;;;;;;16.25;2.80;;;;;;;20.00;55.19;99822.56;4904448;28;120875;-78
2022/09/15 09:01:10;;;;;;;17.75;2.63;;;;;;;20.18;56.12;99819.66;4919777;28;121382;-78
2022/09/15 09:03:57;;;;;;;19.17;2.30;;;;;;;20.30;55.96;99814.56;4921862;28;120468;-77
2022/09/15 09:06:29;;;;;;;16.85;2.60;;;;;;;20.42;55.25;99823.50;4924813;28;120579;-77
2022/09/15 09:08:54;;;;;;;18.70;2.60;;;;;;;20.44;53.27;99820.91;4934511;28;120270;-77
2022/09/15 09:11:45;;;;;;;14.10;2.10;;;;;;;20.42;52.43;99823.50;4918930;28;120179;-78
2022/09/15 09:14:56;;;;;;;23.87;2.80;;;;;;;20.44;53.83;99832.06;4904682;28;121590;-79
2022/09/15 09:17:52;;;;;;;12.27;2.07;;;;;;;20.21;53.10;99840.84;4883333;28;120715;-77
2022/09/15 09:20:43;;;;;;;13.40;2.25;;;;;;;19.97;54.42;99843.84;4937146;28;122206;-77
2022/09/15 09:23:14;;;;;;;17.42;2.13;;;;;;;19.69;55.21;99847.16;4922729;28;121635;-77
2022/09/15 09:25:42;;;;;;;17.43;2.60;;;;;;;19.45;56.16;99836.94;4921494;28;121945;-77
2022/09/15 09:28:28;;;;;;;14.95;2.58;;;;;;;19.27;57.74;99834.97;4910345;28;123030;-76
2022/09/15 09:31:07;;;;;;;20.48;2.88;;;;;;;19.23;58.95;99837.31;4893597;28;122611;-76
2022/09/15 09:33:55;;;;;;;17.98;2.40;;;;;;;19.26;59.14;99823.09;4935137;28;122060;-77
2022/09/15 09:36:24;;;;;;;13.65;2.47;;;;;;;19.39;60.46;99827.19;4916577;28;121411;-77
2022/09/15 09:38:54;;;;;;;20.33;2.63;;;;;;;19.52;60.22;99819.63;4921882;28;120252;-77
2022/09/15 09:41:25;;;;;;;17.27;2.70;;;;;;;19.76;58.97;99827.06;4891763;28;120458;-78
2022/09/15 09:43:54;;;;;;;23.77;3.20;;;;;;;19.94;58.83;99819.88;4923043;28;120411;-77
2022/09/15 09:46:20;;;;;;;18.40;3.08;;;;;;;20.04;57.70;99818.16;4921205;28;120174;-77
2022/09/15 09:48:51;;;;;;;15.10;2.72;;;;;;;20.19;57.20;99823.94;4937512;28;119852;-77
2022/09/15 09:51:50;;;;;;;17.92;3.08;;;;;;;20.29;55.91;99827.00;4908769;28;123155;-77
2022/09/15 09:54:19;;;;;;;17.58;2.40;;;;;;;20.29;54.73;99831.81;4923668;28;120096;-77
2022/09/15 09:56:48;;;;;;;14.38;2.30;;;;;;;20.34;53.17;99823.34;4920124;28;121846;-78
2022/09/15 09:59:33;;;;;;;22.83;2.90;;;;;;;20.49;53.30;99828.38;4936775;28;121794;-79
2022/09/15 10:02:11;;;;;;;12.17;2.13;;;;;;;20.47;51.71;99836.53;4920857;28;121109;-80
2022/09/15 10:04:38;;;;;;;19.52;2.80;;;;;;;20.44;52.02;99832.06;4917341;28;121807;-78
2022/09/15 10:07:06;;;;;;;12.93;2.30;;;;;;;20.39;51.52;99835.69;4937868;28;120905;-77
2022/09/15 10:09:31;;;;;;;18.70;2.85;;;;;;;20.29;54.11;99827.00;4906518;28;122428;-77
2022/09/15 10:12:05;;;;;;;13.27;2.20;;;;;;;20.29;55.27;99837.41;4909256;28;120192;-77
2022/09/15 10:14:38;;;;;;;13.00;2.20;;;;;;;20.17;56.26;99864.72;4910085;28;120469;-78
2022/09/15 10:17:08;;;;;;;17.33;3.13;;;;;;;19.92;57.89;99889.25;4938729;28;120207;-78
2022/09/15 10:19:45;;;;;;;25.27;3.27;;;;;;;19.54;61.03;99894.22;4922540;28;120108;-79
2022/09/15 10:22:20;;;;;;;11.55;2.17;;;;;;;19.08;61.78;99864.84;4925580;28;120171;-77
2022/09/15 10:24:49;;;;;;;13.15;2.50;;;;;;;18.68;62.64;99867.44;4906560;28;121516;-76
2022/09/15 10:27:25;;;;;;;17.02;2.80;;;;;;;18.45;63.93;99871.75;4907970;28;120047;-75
2022/09/15 10:29:53;;;;;;;18.92;2.58;;;;;;;18.23;64.91;99862.47;4907319;28;121402;-77
2022/09/15 10:32:25;;;;;;;17.90;2.83;;;;;;;18.25;65.61;99865.47;4936448;28;123361;-77
2022/09/15 10:35:17;;;;;;;15.00;2.70;;;;;;;18.26;66.76;99850.31;4934149;28;120192;-77
2022/09/15 10:37:52;;;;;;;27.40;3.10;;;;;;;18.42;67.72;99862.47;4924991;28;120580;-77
2022/09/15 10:40:32;;;;;;;25.13;3.03;;;;;;;18.54;67.39;99843.63;4924136;28;119774;-77
2022/09/15 10:43:27;;;;;;;19.02;3.00;;;;;;;18.63;67.32;99854.38;4909914;28;120434;-77
2022/09/15 10:46:25;;;;;;;31.52;3.60;;;;;;;18.75;66.97;99832.78;4896450;28;121931;-76
2022/09/15 10:49:17;;;;;;;20.63;3.58;;;;;;;18.93;66.39;99837.56;4929887;28;120072;-77
2022/09/15 10:52:01;;;;;;;22.45;3.55;;;;;;;19.02;66.20;99832.34;4922422;28;120825;-77
2022/09/15 10:54:42;;;;;;;21.17;3.10;;;;;;;19.22;64.98;99835.81;4925959;28;121512;-76
2022/09/15 10:57:26;;;;;;;26.45;3.50;;;;;;;19.29;63.88;99835.19;4937783;28;120064;-76
2022/09/15 11:00:21;;;;;;;17.27;3.10;;;;;;;19.34;62.39;99831.56;4922669;28;119988;-76
2022/09/15 11:03:17;;;;;;;22.02;3.10;;;;;;;19.29;62.18;99826.84;4902455;28;123773;-77
2022/09/15 11:06:20;;;;;;;20.23;2.90;;;;;;;19.14;60.52;99837.72;4919615;28;121127;-77
2022/09/15 11:09:08;;;;;;;18.92;3.22;;;;;;;18.98;60.39;99845.06;4920893;28;121101;-76
2022/09/15 11:11:41;;;;;;;23.77;3.13;;;;;;;18.81;60.68;99842.50;4903561;28;121118;-76
2022/09/15 11:14:18;;;;;;;21.05;2.88;;;;;;;18.73;61.87;99841.63;4937875;28;120316;-77
2022/09/15 11:16:58;;;;;;;20.80;3.47;;;;;;;18.80;61.82;99834.72;4915453;28;121480;-77
2022/09/15 11:20:00;;;;;;;23.30;3.70;;;;;;;18.98;63.77;99840.25;4925587;28;120410;-78
2022/09/15 11:22:37;;;;;;;18.83;3.03;;;;;;;19.23;62.25;99829.00;4915663;28;122862;-77
2022/09/15 11:25:25;;;;;;;15.60;2.80;;;;;;;19.48;59.97;99847.00;4936698;28;120576;-78
2022/09/15 11:28:03;;;;;;;18.27;2.85;;;;;;;19.57;58.85;99840.31;4925976;28;120436;-77
2022/09/15 11:30:41;;;;;;;18.73;3.10;;;;;;;19.57;58.69;99843.84;4924876;28;123735;-77
2022/09/15 11:33:36;;;;;;;22.97;3.27;;;;;;;19.65;59.11;99848.78;4926668;28;120521;-77
2022/09/15 11:36:27;;;;;;;17.85;2.63;;;;;;;19.60;56.41;99859.44;4904997;28;120956;-77
2022/09/15 11:39:24;;;;;;;19.57;3.00;;;;;;;19.63;57.56;99879.88;4906487;28;121310;-79
2022/09/15 11:42:05;;;;;;;19.02;2.88;;;;;;;19.50;58.78;99902.09;4919713;28;120372;-77